METAR Data
IDs: Format: Raw Decoded Include TAF

Data at: 0230 UTC 26 Apr 2019

PAGS 260156Z AUTO 34010KT 10SM OVC034 04/03 A3015 RMK AO2 RAE05 SLP209 P0000 T00440028
PAGS 260056Z AUTO 34004KT 10SM -RA FEW014 SCT028 OVC034 05/02 A3017 RMK AO2 RAB25 SLP215 P0001 T00500017
PAGS 260048Z AUTO 02004KT 10SM -RA FEW014 BKN026 OVC034 05/01 A3017 RMK AO2 RAB25 P0000
PAGS 252356Z AUTO 32003KT 10SM FEW028 OVC036 05/01 A3019 RMK AO2 RAE12 SLP223 P0000 60000 T00500011 10061 20044 58010
PAGS 252327Z AUTO 00000KT 10SM SCT022 OVC034 06/01 A3020 RMK AO2 RAE12 P0000
PAGS 252256Z AUTO VRB04KT 10SM -RA BKN021 OVC026 05/01 A3021 RMK AO2 RAB28 SLP231 P0000 T00500006
PAGS 252221Z AUTO 21004KT 10SM BKN027 OVC037 06/00 A3021 RMK AO2
PAGS 252156Z AUTO 02006KT 10SM FEW028 OVC037 05/00 A3021 RMK AO2 RAB18E47 SLP232 P0000 T00500000
PAGS 252056Z AUTO 01006KT 10SM OVC041 06/M01 A3022 RMK AO2 RAE1959 SLP234 P0000 60000 T00561006 58008
PAGS 252029Z AUTO VRB03KT 10SM SCT026 OVC039 05/00 A3023 RMK AO2 RAE1959 P0000
PAGS 252017Z AUTO 20003KT 10SM BKN026 OVC037 04/M01 A3023 RMK AO2 RAE1959 P0000
PAGS 251956Z AUTO 33005KT 10SM -RA FEW028 OVC037 04/00 A3023 RMK AO2 RAB15 SLP239 P0000 T00440000
PAGS 251856Z AUTO 23005KT 10SM OVC041 05/M02 A3024 RMK AO2 SLP241 T00501022
PAGS 251756Z AUTO VRB03KT 10SM BKN041 OVC050 05/M03 A3024 RMK AO2 SLP242 T00501028 10056 21022 58007
PAGS 251656Z AUTO 35005KT 10SM OVC055 04/M01 A3025 RMK AO2 SLP244 T00391006
PAGS 251556Z AUTO 33004KT 10SM BKN049 OVC060 02/01 A3026 RMK AO2 SLP247 T00170006 FZRANO
PAGS 251456Z AUTO 32006KT 10SM BKN042 BKN060 BKN085 M01/M02 A3026 RMK AO2 SLP249 T10061017 56014 FZRANO
PAGS 251356Z AUTO 00000KT 10SM BKN046 OVC055 M02/M02 A3028 RMK AO2 SLP253 T10171022 FZRANO
PAGS 251256Z AUTO 28003KT 10SM OVC050 M02/M02 A3029 RMK AO2 SLP257 T10171022 FZRANO
PAGS 251156Z AUTO 29003KT 10SM OVC050 M02/M03 A3031 RMK AO2 SLP263 T10221028 10006 21039 58010 FZRANO
PAGS 251056Z AUTO 00000KT 10SM CLR M03/M04 A3032 RMK AO2 SLP268 T10331039 FZRANO
PAGS 250956Z AUTO 00000KT 10SM CLR M03/M04 A3033 RMK AO2 SLP272 T10281039 FZRANO
PAGS 250856Z AUTO 35003KT 10SM CLR M03/M04 A3034 RMK AO2 SLP273 T10331039 400671033 58005 FZRANO
PAGS 250756Z AUTO 34004KT 10SM CLR M03/M04 A3034 RMK AO2 SLP275 T10281039 FZRANO
PAGS 250556Z AUTO 00000KT 10SM CLR 01/M01 A3035 RMK AO2 SLP279 T00061011 10067 20006 56002 FZRANO
PAGS 250456Z AUTO 00000KT 10SM FEW044 03/M02 A3035 RMK AO2 SLP279 T00331017
PAGS 250356Z AUTO 00000KT 10SM OVC045 06/M03 A3035 RMK AO2 SLP279 T00561033
PAGS 250256Z AUTO 27006KT 10SM OVC060 05/M02 A3036 RMK AO2 SLP280 T00501022 50001
PAGS 250056Z AUTO 25010KT 10SM FEW037 SCT050 06/M04 A3036 RMK AO2 SLP282 T00611039
PAGS 242356Z AUTO 21012G17KT 10SM BKN038 BKN047 06/M02 A3035 RMK AO2 SLP279 60000 T00611022 10061 20022 50005
PAGS 242256Z AUTO 23010G16KT 180V270 10SM BKN036 06/M03 A3036 RMK AO2 SLP280 T00611028
PAGS 242156Z AUTO 23013G16KT 10SM FEW027 BKN036 OVC050 06/M02 A3035 RMK AO2 SLP278 T00611022
PAGS 242056Z AUTO 23008KT 10SM FEW026 06/M02 A3034 RMK AO2 SLP274 60000 T00561017 51016
PAGS 241956Z AUTO 23007KT 10SM FEW027 05/M01 A3033 RMK AO2 RAB1857E19 SLP270 P0000 T00501011
PAGS 241916Z AUTO 15003KT 10SM -RA FEW017 BKN034 OVC050 03/M01 A3032 RMK AO2 RAB1857 P0000
PAGS 241905Z AUTO 22004KT 8SM -RA FEW012 BKN019 OVC034 02/00 A3032 RMK AO2 RAB1857 P0000 FZRANO
PAGS 241856Z AUTO 25012G15KT 8SM FEW016 SCT023 OVC034 04/M01 A3032 RMK AO2 SLP267 T00391006
PAGS 241826Z AUTO 17007KT 10SM BKN025 OVC033 04/00 A3030 RMK AO2
PAGS 241815Z AUTO 15009KT 10SM SCT023 BKN031 04/00 A3029 RMK AO2
PAGS 241756Z AUTO 13005KT 10SM BKN022 BKN029 BKN075 03/M01 A3029 RMK AO2 SLP258 60000 T00331006 10044 21006 51013
PAGS 241656Z AUTO 13005KT 10SM SCT009 BKN026 03/M01 A3028 RMK AO2 SLP254 T00331006
PAGS 241649Z AUTO 14004KT 10SM SCT009 BKN026 03/01 A3028 RMK AO2
PAGS 241637Z AUTO 00000KT 10SM SCT007 SCT031 04/03 A3028 RMK AO2
PAGS 241556Z AUTO 00000KT 10SM FEW025 BKN034 02/02 A3027 RMK AO2 RAE16 SLP252 P0000 T00220017 FZRANO
PAGS 241519Z AUTO 00000KT 10SM FEW011 SCT019 BKN041 01/00 A3026 RMK AO2 RAE16 P0000 FZRANO
PAGS 241505Z AUTO 00000KT 10SM -RA SCT011 BKN016 OVC049 01/00 A3025 RMK AO2 P0000 FZRANO
PAGS 241456Z AUTO 00000KT 10SM -RA BKN011 BKN016 OVC032 01/00 A3025 RMK AO2 UPB37E53RAB53 SLP245 P0000 60000 T00060000 51012 FZRANO
PAGS 241445Z AUTO 00000KT 10SM UP SCT016 BKN027 OVC040 00/00 A3025 RMK AO2 UPB37 P0000 FZRANO